sensor_id;sensor_type;location;lat;lon;timestamp;pressure;altitude;pressure_sealevel;temperature;humidity
27425;BME280;15244;49.088;11.886;2023-02-28T00:00:36;96461.13;;;1.95;44.58
27425;BME280;15244;49.088;11.886;2023-02-28T00:05:38;96458.72;;;1.94;44.47
27425;BME280;15244;49.088;11.886;2023-02-28T00:10:39;96457.16;;;1.93;44.45
27425;BME280;15244;49.088;11.886;2023-02-28T00:15:41;96448.59;;;1.91;44.62
27425;BME280;15244;49.088;11.886;2023-02-28T00:20:42;96447.47;;;1.92;44.67
27425;BME280;15244;49.088;11.886;2023-02-28T00:25:44;96438.13;;;1.89;44.21
27425;BME280;15244;49.088;11.886;2023-02-28T00:30:46;96442.44;;;1.90;44.32
27425;BME280;15244;49.088;11.886;2023-02-28T00:35:48;96433.38;;;1.86;44.16
27425;BME280;15244;49.088;11.886;2023-02-28T00:40:50;96433.22;;;1.83;44.40
27425;BME280;15244;49.088;11.886;2023-02-28T00:45:51;96437.31;;;1.80;44.66
27425;BME280;15244;49.088;11.886;2023-02-28T00:50:53;96425.28;;;1.78;44.70
27425;BME280;15244;49.088;11.886;2023-02-28T00:55:55;96430.97;;;1.76;44.52
27425;BME280;15244;49.088;11.886;2023-02-28T01:00:56;96420.50;;;1.74;44.48
27425;BME280;15244;49.088;11.886;2023-02-28T01:05:58;96412.78;;;1.73;44.47
27425;BME280;15244;49.088;11.886;2023-02-28T01:11:07;96410.38;;;1.71;44.59
27425;BME280;15244;49.088;11.886;2023-02-28T01:16:09;96415.28;;;1.69;44.53
27425;BME280;15244;49.088;11.886;2023-02-28T01:21:13;96414.81;;;1.67;44.64
27425;BME280;15244;49.088;11.886;2023-02-28T01:26:20;96415.72;;;1.63;44.60
27425;BME280;15244;49.088;11.886;2023-02-28T01:31:23;96414.44;;;1.60;44.41
27425;BME280;15244;49.088;11.886;2023-02-28T01:36:25;96406.69;;;1.59;44.57
27425;BME280;15244;49.088;11.886;2023-02-28T01:41:29;96410.00;;;1.56;44.60
27425;BME280;15244;49.088;11.886;2023-02-28T01:46:35;96408.72;;;1.53;44.99
27425;BME280;15244;49.088;11.886;2023-02-28T01:51:48;96413.59;;;1.51;44.80
27425;BME280;15244;49.088;11.886;2023-02-28T01:56:57;96410.75;;;1.47;45.18
27425;BME280;15244;49.088;11.886;2023-02-28T02:02:00;96408.69;;;1.44;45.06
27425;BME280;15244;49.088;11.886;2023-02-28T02:07:02;96390.78;;;1.40;45.38
27425;BME280;15244;49.088;11.886;2023-02-28T02:12:27;96400.25;;;1.37;45.54
27425;BME280;15244;49.088;11.886;2023-02-28T02:17:37;96397.38;;;1.34;45.26
27425;BME280;15244;49.088;11.886;2023-02-28T02:34:23;96392.72;;;1.17;45.78
27425;BME280;15244;49.088;11.886;2023-02-28T02:39:36;96394.41;;;1.13;46.08
27425;BME280;15244;49.088;11.886;2023-02-28T02:44:53;96402.31;;;1.09;45.76
27425;BME280;15244;49.088;11.886;2023-02-28T02:50:02;96397.50;;;1.06;46.02
27425;BME280;15244;49.088;11.886;2023-02-28T02:55:08;96396.56;;;1.02;45.81
27425;BME280;15244;49.088;11.886;2023-02-28T03:00:14;96403.63;;;0.98;45.98
27425;BME280;15244;49.088;11.886;2023-02-28T03:05:26;96399.03;;;0.98;46.08
27425;BME280;15244;49.088;11.886;2023-02-28T03:10:39;96397.16;;;0.99;45.97
27425;BME280;15244;49.088;11.886;2023-02-28T03:21:15;96391.97;;;1.02;45.94
27425;BME280;15244;49.088;11.886;2023-02-28T03:26:23;96404.63;;;1.02;45.91
27425;BME280;15244;49.088;11.886;2023-02-28T03:31:30;96402.22;;;1.00;45.95
27425;BME280;15244;49.088;11.886;2023-02-28T03:36:40;96396.84;;;1.00;45.99
27425;BME280;15244;49.088;11.886;2023-02-28T03:41:54;96400.28;;;0.92;46.33
27425;BME280;15244;49.088;11.886;2023-02-28T03:47:16;96406.25;;;0.89;46.19
27425;BME280;15244;49.088;11.886;2023-02-28T03:52:22;96398.19;;;0.89;46.33
27425;BME280;15244;49.088;11.886;2023-02-28T03:57:36;96405.16;;;0.90;46.25
27425;BME280;15244;49.088;11.886;2023-02-28T04:02:41;96404.34;;;0.90;46.31
27425;BME280;15244;49.088;11.886;2023-02-28T04:07:42;96396.09;;;0.86;46.49
27425;BME280;15244;49.088;11.886;2023-02-28T04:12:44;96408.25;;;0.83;46.13
27425;BME280;15244;49.088;11.886;2023-02-28T04:17:45;96407.88;;;0.76;46.50
27425;BME280;15244;49.088;11.886;2023-02-28T04:22:47;96418.03;;;0.65;46.41
27425;BME280;15244;49.088;11.886;2023-02-28T04:27:49;96423.63;;;0.55;46.74
27425;BME280;15244;49.088;11.886;2023-02-28T04:32:50;96416.00;;;0.49;46.76
27425;BME280;15244;49.088;11.886;2023-02-28T04:37:52;96410.16;;;0.47;47.15
27425;BME280;15244;49.088;11.886;2023-02-28T04:42:53;96401.31;;;0.32;46.73
27425;BME280;15244;49.088;11.886;2023-02-28T04:47:55;96411.88;;;0.29;46.98
27425;BME280;15244;49.088;11.886;2023-02-28T04:52:56;96407.69;;;0.22;47.04
27425;BME280;15244;49.088;11.886;2023-02-28T04:57:58;96418.72;;;0.21;47.52
27425;BME280;15244;49.088;11.886;2023-02-28T05:02:59;96406.91;;;0.22;47.02
27425;BME280;15244;49.088;11.886;2023-02-28T05:08:01;96417.34;;;0.24;46.94
27425;BME280;15244;49.088;11.886;2023-02-28T05:13:03;96416.72;;;0.27;47.29
27425;BME280;15244;49.088;11.886;2023-02-28T05:18:04;96418.53;;;0.31;47.31
27425;BME280;15244;49.088;11.886;2023-02-28T05:23:06;96422.16;;;0.35;47.57
27425;BME280;15244;49.088;11.886;2023-02-28T05:28:07;96423.97;;;0.40;47.46
27425;BME280;15244;49.088;11.886;2023-02-28T05:33:11;96426.13;;;0.38;47.32
27425;BME280;15244;49.088;11.886;2023-02-28T05:38:12;96436.41;;;0.36;47.58
27425;BME280;15244;49.088;11.886;2023-02-28T05:43:14;96424.56;;;0.37;47.26
27425;BME280;15244;49.088;11.886;2023-02-28T05:48:15;96429.03;;;0.41;47.77
27425;BME280;15244;49.088;11.886;2023-02-28T05:53:18;96428.13;;;0.46;47.56
27425;BME280;15244;49.088;11.886;2023-02-28T05:58:20;96425.97;;;0.48;47.37
27425;BME280;15244;49.088;11.886;2023-02-28T06:03:22;96434.97;;;0.52;47.71
27425;BME280;15244;49.088;11.886;2023-02-28T06:08:23;96431.69;;;0.55;47.50
27425;BME280;15244;49.088;11.886;2023-02-28T06:13:25;96444.19;;;0.60;47.07
27425;BME280;15244;49.088;11.886;2023-02-28T06:18:26;96437.75;;;0.61;47.21
27425;BME280;15244;49.088;11.886;2023-02-28T06:23:28;96450.06;;;0.62;47.24
27425;BME280;15244;49.088;11.886;2023-02-28T06:28:31;96453.25;;;0.64;46.99
27425;BME280;15244;49.088;11.886;2023-02-28T06:33:33;96457.81;;;0.63;47.21
27425;BME280;15244;49.088;11.886;2023-02-28T06:38:36;96460.19;;;0.65;46.98
27425;BME280;15244;49.088;11.886;2023-02-28T06:43:40;96468.63;;;0.72;46.39
27425;BME280;15244;49.088;11.886;2023-02-28T06:48:43;96473.88;;;0.77;46.70
27425;BME280;15244;49.088;11.886;2023-02-28T06:53:46;96472.66;;;0.83;46.53
27425;BME280;15244;49.088;11.886;2023-02-28T06:58:49;96471.28;;;0.86;46.56
27425;BME280;15244;49.088;11.886;2023-02-28T07:03:51;96473.84;;;0.91;46.68
27425;BME280;15244;49.088;11.886;2023-02-28T07:08:54;96465.09;;;0.99;46.24
27425;BME280;15244;49.088;11.886;2023-02-28T07:13:56;96471.63;;;1.07;46.41
27425;BME280;15244;49.088;11.886;2023-02-28T07:18:58;96477.38;;;1.14;46.10
27425;BME280;15244;49.088;11.886;2023-02-28T07:24:00;96481.81;;;1.19;46.32
27425;BME280;15244;49.088;11.886;2023-02-28T07:29:01;96472.09;;;1.32;46.24
27425;BME280;15244;49.088;11.886;2023-02-28T07:34:03;96474.38;;;1.38;46.15
27425;BME280;15244;49.088;11.886;2023-02-28T07:39:05;96476.53;;;1.50;45.98
27425;BME280;15244;49.088;11.886;2023-02-28T07:44:06;96480.38;;;1.58;45.69
27425;BME280;15244;49.088;11.886;2023-02-28T07:49:08;96486.28;;;1.68;45.77
27425;BME280;15244;49.088;11.886;2023-02-28T07:54:09;96488.69;;;1.79;46.08
27425;BME280;15244;49.088;11.886;2023-02-28T07:59:11;96478.31;;;1.86;45.68
27425;BME280;15244;49.088;11.886;2023-02-28T08:04:13;96480.56;;;1.92;46.23
27425;BME280;15244;49.088;11.886;2023-02-28T08:09:14;96485.19;;;2.01;46.08
27425;BME280;15244;49.088;11.886;2023-02-28T08:14:16;96482.03;;;2.07;45.94
27425;BME280;15244;49.088;11.886;2023-02-28T08:19:17;96483.38;;;2.19;45.99
27425;BME280;15244;49.088;11.886;2023-02-28T08:24:19;96487.06;;;2.31;45.57
27425;BME280;15244;49.088;11.886;2023-02-28T08:29:21;96492.63;;;2.44;46.12
27425;BME280;15244;49.088;11.886;2023-02-28T08:34:22;96492.66;;;2.52;45.77
27425;BME280;15244;49.088;11.886;2023-02-28T08:39:24;96499.94;;;2.60;45.64
27425;BME280;15244;49.088;11.886;2023-02-28T08:44:26;96503.31;;;2.66;45.08
27425;BME280;15244;49.088;11.886;2023-02-28T08:49:28;96505.72;;;2.76;45.36
27425;BME280;15244;49.088;11.886;2023-02-28T08:54:30;96508.25;;;2.81;45.01
27425;BME280;15244;49.088;11.886;2023-02-28T08:59:33;96503.84;;;2.94;45.16
27425;BME280;15244;49.088;11.886;2023-02-28T09:04:35;96514.31;;;3.04;44.93
27425;BME280;15244;49.088;11.886;2023-02-28T09:09:36;96513.22;;;3.14;44.77
27425;BME280;15244;49.088;11.886;2023-02-28T09:14:38;96507.81;;;3.23;44.68
27425;BME280;15244;49.088;11.886;2023-02-28T09:19:40;96514.00;;;3.32;44.61
27425;BME280;15244;49.088;11.886;2023-02-28T09:24:41;96498.31;;;3.43;44.61
27425;BME280;15244;49.088;11.886;2023-02-28T09:29:43;96506.56;;;3.55;44.14
27425;BME280;15244;49.088;11.886;2023-02-28T09:34:45;96501.91;;;3.64;44.02
27425;BME280;15244;49.088;11.886;2023-02-28T09:39:46;96502.41;;;3.75;43.78
27425;BME280;15244;49.088;11.886;2023-02-28T09:44:49;96513.78;;;3.89;44.12
27425;BME280;15244;49.088;11.886;2023-02-28T09:49:51;96508.53;;;4.02;43.85
27425;BME280;15244;49.088;11.886;2023-02-28T09:54:53;96511.53;;;4.09;43.54
27425;BME280;15244;49.088;11.886;2023-02-28T10:00:05;96511.31;;;4.23;43.60
27425;BME280;15244;49.088;11.886;2023-02-28T10:05:15;96508.41;;;4.37;43.44
27425;BME280;15244;49.088;11.886;2023-02-28T10:10:22;96508.19;;;4.50;43.38
27425;BME280;15244;49.088;11.886;2023-02-28T10:15:29;96511.78;;;4.63;43.02
27425;BME280;15244;49.088;11.886;2023-02-28T10:20:38;96511.41;;;4.73;43.06
27425;BME280;15244;49.088;11.886;2023-02-28T10:25:44;96514.84;;;4.83;43.17
27425;BME280;15244;49.088;11.886;2023-02-28T10:30:51;96519.41;;;4.91;42.83
27425;BME280;15244;49.088;11.886;2023-02-28T10:35:53;96514.44;;;5.02;42.78
27425;BME280;15244;49.088;11.886;2023-02-28T10:41:09;96514.50;;;5.14;42.95
27425;BME280;15244;49.088;11.886;2023-02-28T10:46:16;96511.44;;;5.24;42.60
27425;BME280;15244;49.088;11.886;2023-02-28T10:51:35;96518.22;;;5.30;42.19
27425;BME280;15244;49.088;11.886;2023-02-28T10:56:37;96524.34;;;5.39;42.13
27425;BME280;15244;49.088;11.886;2023-02-28T11:06:42;96510.81;;;5.60;41.87
27425;BME280;15244;49.088;11.886;2023-02-28T11:11:46;96514.56;;;5.68;41.58
27425;BME280;15244;49.088;11.886;2023-02-28T11:16:49;96518.31;;;5.76;41.50
27425;BME280;15244;49.088;11.886;2023-02-28T11:21:57;96518.34;;;5.88;41.59
27425;BME280;15244;49.088;11.886;2023-02-28T11:27:01;96517.97;;;5.98;41.33
27425;BME280;15244;49.088;11.886;2023-02-28T11:32:21;96513.38;;;6.11;41.55
27425;BME280;15244;49.088;11.886;2023-02-28T11:37:24;96503.25;;;6.20;41.54
27425;BME280;15244;49.088;11.886;2023-02-28T11:42:41;96509.00;;;6.31;41.35
27425;BME280;15244;49.088;11.886;2023-02-28T11:48:09;96514.47;;;6.43;40.77
27425;BME280;15244;49.088;11.886;2023-02-28T12:03:55;96515.47;;;6.76;40.44
27425;BME280;15244;49.088;11.886;2023-02-28T12:20:02;96511.50;;;6.98;39.82
27425;BME280;15244;49.088;11.886;2023-02-28T12:30:28;96506.16;;;7.13;39.72
27425;BME280;15244;49.088;11.886;2023-02-28T12:35:38;96489.78;;;7.22;39.73
27425;BME280;15244;49.088;11.886;2023-02-28T12:40:56;96483.75;;;7.29;39.71
27425;BME280;15244;49.088;11.886;2023-02-28T12:46:09;96479.69;;;7.35;39.50
27425;BME280;15244;49.088;11.886;2023-02-28T12:51:13;96476.38;;;7.42;39.12
27425;BME280;15244;49.088;11.886;2023-02-28T12:56:22;96468.97;;;7.54;39.41
27425;BME280;15244;49.088;11.886;2023-02-28T13:01:42;96466.91;;;7.64;39.30
27425;BME280;15244;49.088;11.886;2023-02-28T13:12:14;96464.31;;;7.67;38.84
27425;BME280;15244;49.088;11.886;2023-02-28T13:17:20;96474.66;;;7.77;38.81
27425;BME280;15244;49.088;11.886;2023-02-28T13:27:38;96473.81;;;7.89;38.87
27425;BME280;15244;49.088;11.886;2023-02-28T13:32:41;96474.78;;;7.97;38.89
27425;BME280;15244;49.088;11.886;2023-02-28T13:37:44;96470.31;;;8.04;38.88
27425;BME280;15244;49.088;11.886;2023-02-28T13:42:47;96470.44;;;8.08;38.37
27425;BME280;15244;49.088;11.886;2023-02-28T13:48:20;96469.81;;;8.15;38.54
27425;BME280;15244;49.088;11.886;2023-02-28T13:53:53;96470.00;;;8.22;38.40
27425;BME280;15244;49.088;11.886;2023-02-28T13:59:06;96463.44;;;8.23;37.94
27425;BME280;15244;49.088;11.886;2023-02-28T14:10:05;96452.47;;;8.35;38.22
27425;BME280;15244;49.088;11.886;2023-02-28T14:20:33;96448.25;;;8.22;37.26
27425;BME280;15244;49.088;11.886;2023-02-28T14:31:05;96459.03;;;8.34;37.57
27425;BME280;15244;49.088;11.886;2023-02-28T14:36:14;96463.97;;;8.44;37.31
27425;BME280;15244;49.088;11.886;2023-02-28T14:41:30;96456.53;;;8.57;37.62
27425;BME280;15244;49.088;11.886;2023-02-28T14:46:38;96454.50;;;8.70;37.64
27425;BME280;15244;49.088;11.886;2023-02-28T14:51:41;96461.53;;;8.71;37.12
27425;BME280;15244;49.088;11.886;2023-02-28T14:56:43;96459.03;;;8.82;37.12
27425;BME280;15244;49.088;11.886;2023-02-28T15:01:45;96457.72;;;8.92;36.91
27425;BME280;15244;49.088;11.886;2023-02-28T15:07:07;96459.78;;;8.98;36.69
27425;BME280;15244;49.088;11.886;2023-02-28T15:12:13;96466.97;;;9.06;36.54
27425;BME280;15244;49.088;11.886;2023-02-28T15:17:22;96458.88;;;9.10;36.25
27425;BME280;15244;49.088;11.886;2023-02-28T15:22:31;96463.97;;;9.11;36.10
27425;BME280;15244;49.088;11.886;2023-02-28T15:27:44;96462.66;;;9.05;36.25
27425;BME280;15244;49.088;11.886;2023-02-28T15:33:20;96457.31;;;9.09;36.14
27425;BME280;15244;49.088;11.886;2023-02-28T15:38:26;96456.88;;;9.07;36.16
27425;BME280;15244;49.088;11.886;2023-02-28T15:43:31;96470.38;;;9.03;35.79
27425;BME280;15244;49.088;11.886;2023-02-28T15:48:35;96464.72;;;8.93;35.68
27425;BME280;15244;49.088;11.886;2023-02-28T15:53:48;96466.81;;;8.83;35.76
27425;BME280;15244;49.088;11.886;2023-02-28T15:58:55;96470.97;;;8.77;35.56
27425;BME280;15244;49.088;11.886;2023-02-28T16:04:01;96468.06;;;8.70;35.54
27425;BME280;15244;49.088;11.886;2023-02-28T16:09:05;96471.06;;;8.65;35.51
27425;BME280;15244;49.088;11.886;2023-02-28T16:14:15;96461.16;;;8.57;35.50
27425;BME280;15244;49.088;11.886;2023-02-28T16:19:17;96471.44;;;8.48;35.53
27425;BME280;15244;49.088;11.886;2023-02-28T16:24:19;96480.00;;;8.34;35.42
27425;BME280;15244;49.088;11.886;2023-02-28T16:29:34;96484.72;;;8.21;35.50
27425;BME280;15244;49.088;11.886;2023-02-28T16:34:36;96482.88;;;8.09;35.45
27425;BME280;15244;49.088;11.886;2023-02-28T16:39:37;96495.28;;;7.94;35.44
27425;BME280;15244;49.088;11.886;2023-02-28T16:44:39;96495.25;;;7.78;35.60
27425;BME280;15244;49.088;11.886;2023-02-28T16:49:41;96498.69;;;7.63;35.64
27425;BME280;15244;49.088;11.886;2023-02-28T16:54:44;96501.34;;;7.47;35.98
27425;BME280;15244;49.088;11.886;2023-02-28T16:59:46;96509.84;;;7.33;35.72
27425;BME280;15244;49.088;11.886;2023-02-28T17:04:47;96515.22;;;7.18;36.28
27425;BME280;15244;49.088;11.886;2023-02-28T17:09:49;96520.31;;;7.07;36.12
27425;BME280;15244;49.088;11.886;2023-02-28T17:14:50;96528.78;;;6.93;36.19
27425;BME280;15244;49.088;11.886;2023-02-28T17:19:52;96534.66;;;6.83;36.60
27425;BME280;15244;49.088;11.886;2023-02-28T17:24:53;96534.00;;;6.73;36.54
27425;BME280;15244;49.088;11.886;2023-02-28T17:29:58;96538.28;;;6.62;36.30
27425;BME280;15244;49.088;11.886;2023-02-28T17:35:01;96548.31;;;6.49;36.90
27425;BME280;15244;49.088;11.886;2023-02-28T17:40:03;96548.28;;;6.37;36.97
27425;BME280;15244;49.088;11.886;2023-02-28T17:45:05;96549.50;;;6.27;37.14
27425;BME280;15244;49.088;11.886;2023-02-28T17:50:14;96554.25;;;6.18;37.65
27425;BME280;15244;49.088;11.886;2023-02-28T17:55:16;96552.75;;;6.08;37.54
27425;BME280;15244;49.088;11.886;2023-02-28T18:00:18;96557.56;;;6.03;37.77
27425;BME280;15244;49.088;11.886;2023-02-28T18:05:19;96556.53;;;5.95;38.05
27425;BME280;15244;49.088;11.886;2023-02-28T18:10:21;96550.47;;;5.90;37.82
27425;BME280;15244;49.088;11.886;2023-02-28T18:15:23;96550.69;;;5.84;38.08
27425;BME280;15244;49.088;11.886;2023-02-28T18:20:25;96553.59;;;5.79;38.13
27425;BME280;15244;49.088;11.886;2023-02-28T18:25:27;96548.41;;;5.74;38.23
27425;BME280;15244;49.088;11.886;2023-02-28T18:30:30;96554.00;;;5.69;38.74
27425;BME280;15244;49.088;11.886;2023-02-28T18:35:33;96547.34;;;5.67;38.28
27425;BME280;15244;49.088;11.886;2023-02-28T18:40:36;96543.38;;;5.64;38.80
27425;BME280;15244;49.088;11.886;2023-02-28T18:45:38;96545.97;;;5.60;38.56
27425;BME280;15244;49.088;11.886;2023-02-28T18:50:40;96548.88;;;5.55;38.92
27425;BME280;15244;49.088;11.886;2023-02-28T18:55:42;96541.28;;;5.49;39.14
27425;BME280;15244;49.088;11.886;2023-02-28T19:00:46;96541.03;;;5.41;38.78
27425;BME280;15244;49.088;11.886;2023-02-28T19:05:48;96547.28;;;5.33;39.11
27425;BME280;15244;49.088;11.886;2023-02-28T19:10:51;96544.00;;;5.28;39.02
27425;BME280;15244;49.088;11.886;2023-02-28T19:16:00;96548.00;;;5.21;39.14
27425;BME280;15244;49.088;11.886;2023-02-28T19:21:02;96553.59;;;5.16;39.76
27425;BME280;15244;49.088;11.886;2023-02-28T19:26:09;96544.88;;;5.11;39.58
27425;BME280;15244;49.088;11.886;2023-02-28T19:31:12;96545.56;;;5.08;39.65
27425;BME280;15244;49.088;11.886;2023-02-28T19:36:14;96553.84;;;5.03;39.65
27425;BME280;15244;49.088;11.886;2023-02-28T19:41:16;96544.38;;;4.96;39.64
27425;BME280;15244;49.088;11.886;2023-02-28T19:46:18;96548.41;;;4.82;39.72
27425;BME280;15244;49.088;11.886;2023-02-28T19:51:20;96544.28;;;4.75;40.26
27425;BME280;15244;49.088;11.886;2023-02-28T19:56:23;96552.44;;;4.67;40.10
27425;BME280;15244;49.088;11.886;2023-02-28T20:01:24;96546.09;;;4.63;40.16
27425;BME280;15244;49.088;11.886;2023-02-28T20:06:26;96550.59;;;4.59;40.61
27425;BME280;15244;49.088;11.886;2023-02-28T20:11:28;96547.72;;;4.55;40.44
27425;BME280;15244;49.088;11.886;2023-02-28T20:16:30;96547.91;;;4.50;40.34
27425;BME280;15244;49.088;11.886;2023-02-28T20:21:33;96539.19;;;4.44;40.46
27425;BME280;15244;49.088;11.886;2023-02-28T20:26:34;96537.94;;;4.42;40.28
27425;BME280;15244;49.088;11.886;2023-02-28T20:31:37;96540.50;;;4.38;40.88
27425;BME280;15244;49.088;11.886;2023-02-28T20:36:39;96536.38;;;4.32;40.92
27425;BME280;15244;49.088;11.886;2023-02-28T20:41:40;96539.06;;;4.32;41.01
27425;BME280;15244;49.088;11.886;2023-02-28T20:46:42;96542.44;;;4.29;41.10
27425;BME280;15244;49.088;11.886;2023-02-28T20:51:44;96542.25;;;4.25;41.03
27425;BME280;15244;49.088;11.886;2023-02-28T20:56:46;96541.66;;;4.20;40.98
27425;BME280;15244;49.088;11.886;2023-02-28T21:01:47;96539.13;;;4.15;40.95
27425;BME280;15244;49.088;11.886;2023-02-28T21:06:49;96545.97;;;4.12;40.79
27425;BME280;15244;49.088;11.886;2023-02-28T21:11:52;96541.50;;;4.07;41.26
27425;BME280;15244;49.088;11.886;2023-02-28T21:16:54;96542.50;;;4.03;41.52
27425;BME280;15244;49.088;11.886;2023-02-28T21:21:56;96545.38;;;3.98;41.40
27425;BME280;15244;49.088;11.886;2023-02-28T21:26:58;96538.22;;;3.93;41.28
27425;BME280;15244;49.088;11.886;2023-02-28T21:32:01;96538.53;;;3.91;41.59
27425;BME280;15244;49.088;11.886;2023-02-28T21:37:03;96535.38;;;3.89;41.71
27425;BME280;15244;49.088;11.886;2023-02-28T21:42:07;96535.69;;;3.88;42.10
27425;BME280;15244;49.088;11.886;2023-02-28T21:47:09;96546.00;;;3.86;41.98
27425;BME280;15244;49.088;11.886;2023-02-28T21:52:10;96529.69;;;3.82;42.00
27425;BME280;15244;49.088;11.886;2023-02-28T21:57:12;96526.50;;;3.80;41.96
27425;BME280;15244;49.088;11.886;2023-02-28T22:02:14;96536.81;;;3.78;41.82
27425;BME280;15244;49.088;11.886;2023-02-28T22:07:16;96530.94;;;3.76;42.03
27425;BME280;15244;49.088;11.886;2023-02-28T22:12:18;96532.69;;;3.72;41.92
27425;BME280;15244;49.088;11.886;2023-02-28T22:17:20;96539.06;;;3.67;42.42
27425;BME280;15244;49.088;11.886;2023-02-28T22:22:21;96535.09;;;3.65;42.21
27425;BME280;15244;49.088;11.886;2023-02-28T22:27:23;96537.78;;;3.65;42.49
27425;BME280;15244;49.088;11.886;2023-02-28T22:32:24;96535.88;;;3.65;42.62
27425;BME280;15244;49.088;11.886;2023-02-28T22:37:26;96540.97;;;3.58;42.79
27425;BME280;15244;49.088;11.886;2023-02-28T22:42:31;96534.78;;;3.49;42.71
27425;BME280;15244;49.088;11.886;2023-02-28T22:47:33;96536.53;;;3.45;42.90
27425;BME280;15244;49.088;11.886;2023-02-28T22:52:38;96543.34;;;3.51;43.16
27425;BME280;15244;49.088;11.886;2023-02-28T22:57:40;96538.56;;;3.57;43.36
27425;BME280;15244;49.088;11.886;2023-02-28T23:02:42;96535.72;;;3.62;43.29
27425;BME280;15244;49.088;11.886;2023-02-28T23:07:44;96529.72;;;3.65;43.21
27425;BME280;15244;49.088;11.886;2023-02-28T23:12:46;96533.34;;;3.69;43.39
27425;BME280;15244;49.088;11.886;2023-02-28T23:17:50;96529.19;;;3.72;43.26
27425;BME280;15244;49.088;11.886;2023-02-28T23:22:52;96530.47;;;3.74;43.43
27425;BME280;15244;49.088;11.886;2023-02-28T23:27:53;96523.16;;;3.75;43.32
27425;BME280;15244;49.088;11.886;2023-02-28T23:32:55;96515.56;;;3.77;43.59
27425;BME280;15244;49.088;11.886;2023-02-28T23:37:57;96509.06;;;3.78;43.69
27425;BME280;15244;49.088;11.886;2023-02-28T23:43:02;96520.63;;;3.78;43.38
27425;BME280;15244;49.088;11.886;2023-02-28T23:48:04;96519.03;;;3.77;43.41
27425;BME280;15244;49.088;11.886;2023-02-28T23:53:06;96520.81;;;3.73;43.34
27425;BME280;15244;49.088;11.886;2023-02-28T23:58:08;96526.19;;;3.73;42.98
